Time;durP1;ratioP1;P1;durP2;ratioP2;P2;SDS_P1;SDS_P2;PMS_P1;PMS_P2;Temp;Humidity;BMP_temperature;BMP_pressure;BME280_temperature;BME280_humidity;BME280_pressure;Samples;Min_cycle;Max_cycle;Signal;HPM_P1;HPM_P2
2021/01/13 00:01:17;;;;;;;0.90;0.70;;;0.50;99.90;;;;;;4975085;28;20208;-51
2021/01/13 00:03:44;;;;;;;0.80;0.70;;;0.50;99.90;;;;;;4975343;28;20227;-52
2021/01/13 00:06:15;;;;;;;1.33;1.23;;;0.50;99.90;;;;;;4975238;28;20554;-50
2021/01/13 00:08:44;;;;;;;1.42;0.82;;;0.40;99.90;;;;;;4975633;28;20183;-54
2021/01/13 00:11:13;;;;;;;11.82;0.85;;;0.40;99.90;;;;;;4975530;28;20303;-52
2021/01/13 00:13:41;;;;;;;1.17;0.70;;;0.30;99.90;;;;;;4975212;28;20176;-50
2021/01/13 00:16:12;;;;;;;0.70;0.50;;;0.30;99.90;;;;;;4974352;28;20199;-55
2021/01/13 00:18:39;;;;;;;3.20;0.80;;;0.30;99.90;;;;;;4988411;28;20594;-53
2021/01/13 00:21:12;;;;;;;1.40;1.10;;;0.30;99.90;;;;;;4973077;28;20730;-52
2021/01/13 00:23:43;;;;;;;0.70;0.50;;;0.30;99.90;;;;;;4975419;28;20242;-55
2021/01/13 00:26:10;;;;;;;7.43;1.52;;;0.20;99.90;;;;;;4977579;28;20188;-50
2021/01/13 00:28:37;;;;;;;1.00;0.90;;;0.20;99.90;;;;;;4977794;28;20661;-57
2021/01/13 00:31:05;;;;;;;0.73;0.57;;;0.20;99.90;;;;;;4978096;28;20219;-51
2021/01/13 00:33:33;;;;;;;1.35;0.90;;;0.20;99.90;;;;;;4977650;28;20637;-52
2021/01/13 00:36:00;;;;;;;3.28;0.80;;;0.10;99.90;;;;;;4978168;28;20184;-54
2021/01/13 00:38:27;;;;;;;0.88;0.88;;;0.20;99.90;;;;;;4976910;28;20183;-55
2021/01/13 00:40:54;;;;;;;1.15;1.05;;;0.30;99.90;;;;;;4977625;28;20292;-52
2021/01/13 00:43:22;;;;;;;8.20;1.95;;;0.40;99.90;;;;;;4977604;28;20176;-54
2021/01/13 00:45:49;;;;;;;0.80;0.70;;;0.50;99.90;;;;;;4977946;28;20175;-53
2021/01/13 00:48:17;;;;;;;0.80;0.60;;;0.50;99.90;;;;;;4977938;28;20172;-52
2021/01/13 00:50:45;;;;;;;1.08;0.73;;;0.50;99.90;;;;;;4977283;28;20302;-55
2021/01/13 00:53:12;;;;;;;4.15;1.48;;;0.50;99.90;;;;;;4979207;28;20266;-54
2021/01/13 00:55:42;;;;;;;1.40;1.15;;;0.60;99.90;;;;;;4979247;28;20581;-49
2021/01/13 00:58:10;;;;;;;11.07;2.05;;;0.60;99.90;;;;;;4993030;28;20202;-55
2021/01/13 01:00:37;;;;;;;0.70;0.50;;;0.60;99.90;;;;;;4977339;28;20672;-57
2021/01/13 01:03:05;;;;;;;1.60;0.70;;;0.50;99.90;;;;;;4977803;28;20191;-53
2021/01/13 01:05:33;;;;;;;2.13;0.65;;;0.50;99.90;;;;;;4977118;28;20759;-52
2021/01/13 01:08:00;;;;;;;4.00;1.40;;;0.50;99.90;;;;;;4977614;28;20180;-51
2021/01/13 01:10:30;;;;;;;0.80;0.68;;;0.50;99.90;;;;;;4977439;28;20211;-57
2021/01/13 01:12:58;;;;;;;1.30;1.00;;;0.50;99.90;;;;;;4977680;28;20180;-54
2021/01/13 01:15:26;;;;;;;0.90;0.52;;;0.50;99.90;;;;;;4976697;28;20187;-51
2021/01/13 01:17:53;;;;;;;0.90;0.73;;;0.40;99.90;;;;;;4976314;28;20262;-53
2021/01/13 01:20:22;;;;;;;0.80;0.60;;;0.40;99.90;;;;;;4976904;28;20215;-55
2021/01/13 01:22:51;;;;;;;1.55;1.02;;;0.30;99.90;;;;;;4976344;28;20187;-51
2021/01/13 01:25:19;;;;;;;0.77;0.60;;;0.40;99.90;;;;;;4976701;28;20254;-52
2021/01/13 01:27:50;;;;;;;0.70;0.50;;;0.40;99.90;;;;;;4976158;28;20186;-54
2021/01/13 01:30:19;;;;;;;0.70;0.55;;;0.40;99.90;;;;;;4991059;28;20223;-50
2021/01/13 01:32:46;;;;;;;3.20;0.90;;;0.40;99.90;;;;;;4975463;28;20199;-51
2021/01/13 01:35:14;;;;;;;1.13;1.02;;;0.40;99.90;;;;;;4975559;28;20183;-54
2021/01/13 01:37:42;;;;;;;1.08;0.98;;;0.40;99.90;;;;;;4976088;28;20203;-55
2021/01/13 01:40:13;;;;;;;2.47;0.88;;;0.40;99.90;;;;;;4975596;28;20211;-54
2021/01/13 01:42:44;;;;;;;5.65;1.63;;;0.40;99.90;;;;;;4990149;28;20290;-56
2021/01/13 01:45:15;;;;;;;0.80;0.70;;;0.50;99.90;;;;;;4975256;28;20732;-51
2021/01/13 01:48:10;;;;;;;3.35;1.13;;;0.60;99.90;;;;;;4975591;28;20222;-55
2021/01/13 01:50:39;;;;;;;0.80;0.50;;;0.80;99.90;;;;;;4975004;28;20603;-50
2021/01/13 01:53:14;;;;;;;1.88;0.95;;;0.90;99.90;;;;;;4974861;28;20188;-50
2021/01/13 01:55:50;;;;;;;1.20;0.90;;;0.90;99.90;;;;;;4975298;28;20210;-49
2021/01/13 01:58:26;;;;;;;1.05;0.70;;;0.90;99.90;;;;;;4974866;28;20266;-54
2021/01/13 02:00:56;;;;;;;0.90;0.70;;;1.00;99.90;;;;;;4975471;28;20234;-53
2021/01/13 02:03:27;;;;;;;2.20;1.23;;;1.00;99.90;;;;;;4990946;28;20199;-55
2021/01/13 02:05:59;;;;;;;3.28;1.45;;;1.00;99.90;;;;;;4976060;28;20187;-54
2021/01/13 02:08:26;;;;;;;2.53;1.08;;;1.00;99.90;;;;;;4974969;28;20750;-50
2021/01/13 02:10:54;;;;;;;1.38;0.85;;;1.00;99.90;;;;;;4974834;28;20219;-51
2021/01/13 02:13:22;;;;;;;2.10;1.17;;;1.00;99.90;;;;;;4974519;28;20183;-49
2021/01/13 02:15:49;;;;;;;2.45;0.98;;;1.00;99.90;;;;;;4974491;28;20175;-50
2021/01/13 02:18:18;;;;;;;5.95;1.42;;;1.00;99.90;;;;;;4974946;28;20202;-54
2021/01/13 02:20:52;;;;;;;2.35;1.35;;;1.00;99.90;;;;;;4974796;28;20272;-51
2021/01/13 02:23:30;;;;;;;3.25;1.60;;;1.00;99.90;;;;;;4990165;28;20195;-50
2021/01/13 02:26:51;;;;;;;2.45;1.88;;;1.10;99.90;;;;;;4974832;28;20199;-51
2021/01/13 02:29:43;;;;;;;1.23;1.10;;;1.10;99.90;;;;;;4989287;28;20567;-51
2021/01/13 02:32:17;;;;;;;1.80;1.20;;;1.10;99.90;;;;;;4974273;28;20203;-51
2021/01/13 02:35:00;;;;;;;2.80;1.23;;;1.10;99.90;;;;;;4988834;28;20278;-49
2021/01/13 02:38:00;;;;;;;2.42;1.13;;;1.10;99.90;;;;;;4974727;28;20183;-54
2021/01/13 02:40:30;;;;;;;3.17;1.33;;;1.20;99.90;;;;;;4974080;28;20760;-52
2021/01/13 02:43:03;;;;;;;6.68;1.92;;;1.20;99.90;;;;;;4974151;28;20195;-53
2021/01/13 02:45:35;;;;;;;1.88;1.70;;;1.30;99.90;;;;;;4973445;28;20543;-50
2021/01/13 02:48:19;;;;;;;1.70;0.90;;;1.30;99.90;;;;;;4973413;28;20637;-54
2021/01/13 02:50:54;;;;;;;2.92;1.83;;;1.30;99.90;;;;;;4974002;28;20253;-49
2021/01/13 02:53:50;;;;;;;1.85;1.42;;;1.40;99.90;;;;;;4974046;28;20174;-52
2021/01/13 02:56:42;;;;;;;10.27;1.40;;;1.40;99.90;;;;;;4973905;28;20180;-51
2021/01/13 02:59:12;;;;;;;5.15;1.23;;;1.40;99.90;;;;;;4974315;28;20263;-49
2021/01/13 03:01:42;;;;;;;3.75;1.80;;;1.40;99.90;;;;;;4973888;28;20214;-54
2021/01/13 03:04:10;;;;;;;2.20;0.90;;;1.40;99.90;;;;;;4989112;28;20207;-52
2021/01/13 03:06:45;;;;;;;2.15;1.20;;;1.40;99.90;;;;;;4973776;28;20180;-50
2021/01/13 03:09:13;;;;;;;1.13;0.75;;;1.40;99.90;;;;;;4973710;28;20198;-53
2021/01/13 03:11:42;;;;;;;23.20;2.33;;;1.40;99.90;;;;;;4973438;28;20211;-50
2021/01/13 03:14:18;;;;;;;1.27;1.17;;;1.40;99.90;;;;;;4974131;28;20247;-54
2021/01/13 03:17:03;;;;;;;1.50;1.40;;;1.40;99.90;;;;;;4974310;28;20172;-53
2021/01/13 03:28:42;;;;;;;1.75;1.48;;;1.50;99.90;;;;;;5421877;23;20287;-47
2021/01/13 03:31:17;;;;;;;6.18;1.35;;;1.50;99.90;;;;;;5032789;28;20300;-47
2021/01/13 03:34:24;;;;;;;1.45;1.10;;;1.50;99.90;;;;;;5032860;28;20590;-50
2021/01/13 03:36:59;;;;;;;0.80;0.75;;;1.50;99.90;;;;;;5029474;28;20220;-51
2021/01/13 03:39:33;;;;;;;7.32;1.52;;;1.50;99.90;;;;;;5032449;28;20543;-47
2021/01/13 03:42:09;;;;;;;1.00;0.90;;;1.50;99.90;;;;;;5032648;28;20177;-50
2021/01/13 03:44:39;;;;;;;4.00;3.70;;;1.50;99.90;;;;;;5032510;28;20201;-50
2021/01/13 03:47:59;;;;;;;1.35;0.98;;;1.50;99.90;;;;;;5032400;28;20754;-51
2021/01/13 03:50:36;;;;;;;7.35;2.10;;;1.50;99.90;;;;;;5030844;28;20524;-50
2021/01/13 03:53:06;;;;;;;1.20;0.85;;;1.50;99.90;;;;;;5032300;28;20185;-45
2021/01/13 03:55:35;;;;;;;2.15;1.58;;;1.50;99.90;;;;;;5032933;28;20197;-47
2021/01/13 03:58:36;;;;;;;2.15;1.95;;;1.40;99.90;;;;;;5033910;28;20189;-49
2021/01/13 04:01:37;;;;;;;2.95;1.42;;;1.40;99.90;;;;;;5036048;28;20608;-49
2021/01/13 04:04:21;;;;;;;2.28;0.65;;;1.40;99.90;;;;;;5035941;28;20255;-47
2021/01/13 04:06:58;;;;;;;1.15;0.95;;;1.40;99.90;;;;;;5036119;28;20178;-47
2021/01/13 04:09:26;;;;;;;1.35;1.02;;;1.40;99.90;;;;;;5035971;28;20174;-49
2021/01/13 04:12:11;;;;;;;6.25;1.35;;;1.40;99.90;;;;;;5035946;28;20658;-48
2021/01/13 04:14:51;;;;;;;14.18;1.88;;;1.50;99.90;;;;;;5036078;28;20170;-51
2021/01/13 04:17:19;;;;;;;1.00;0.77;;;1.50;99.90;;;;;;5036025;28;20174;-48
2021/01/13 04:19:47;;;;;;;1.95;1.85;;;1.50;99.90;;;;;;5035918;28;20209;-50
2021/01/13 04:22:16;;;;;;;1.17;1.05;;;1.50;99.90;;;;;;5035992;28;20541;-51
2021/01/13 04:24:46;;;;;;;3.65;1.60;;;1.50;99.90;;;;;;5035765;28;20678;-47
2021/01/13 04:27:15;;;;;;;3.20;1.15;;;1.50;99.90;;;;;;5035941;28;20661;-45
2021/01/13 04:32:32;;;;;;;0.90;0.77;;;1.50;99.90;;;;;;4239365;26;20209;-50
2021/01/13 04:34:59;;;;;;;7.75;1.38;;;1.50;99.90;;;;;;5035721;28;20596;-48
2021/01/13 04:37:31;;;;;;;1.55;1.40;;;1.50;99.90;;;;;;5035547;28;20178;-50
2021/01/13 04:40:14;;;;;;;2.08;1.52;;;1.60;99.90;;;;;;5035727;28;20232;-50
2021/01/13 04:42:59;;;;;;;2.03;1.50;;;1.60;99.90;;;;;;5035609;28;20217;-46
2021/01/13 04:45:36;;;;;;;3.05;1.63;;;1.50;99.90;;;;;;5035900;28;20212;-45
2021/01/13 04:48:06;;;;;;;2.22;2.03;;;1.50;99.90;;;;;;5035687;28;20177;-43
2021/01/13 04:50:36;;;;;;;4.70;1.40;;;1.60;99.90;;;;;;5034491;28;20209;-44
2021/01/13 04:53:12;;;;;;;5.03;2.22;;;1.60;99.90;;;;;;5017768;28;20280;-45
2021/01/13 04:55:51;;;;;;;1.00;0.80;;;1.50;99.90;;;;;;5035602;28;20185;-47
2021/01/13 04:58:52;;;;;;;4.45;1.83;;;1.60;99.90;;;;;;5035440;28;20188;-50
2021/01/13 05:01:53;;;;;;;2.03;1.60;;;1.60;99.90;;;;;;5035582;28;20229;-51
2021/01/13 05:04:54;;;;;;;2.25;1.45;;;1.60;99.90;;;;;;5035503;28;20207;-53
2021/01/13 05:07:29;;;;;;;4.32;1.48;;;1.50;99.90;;;;;;5035323;28;20177;-47
2021/01/13 05:10:01;;;;;;;1.52;1.30;;;1.50;99.90;;;;;;5033689;28;20209;-46
2021/01/13 05:12:45;;;;;;;1.50;1.40;;;1.50;99.90;;;;;;5035002;28;20184;-47
2021/01/13 05:15:15;;;;;;;2.65;1.95;;;1.50;99.90;;;;;;5017235;28;20181;-50
2021/01/13 05:18:16;;;;;;;5.70;2.50;;;1.40;99.90;;;;;;5035300;28;20178;-46
2021/01/13 05:20:44;;;;;;;1.23;1.13;;;1.40;99.90;;;;;;5034841;28;20209;-47
2021/01/13 05:23:12;;;;;;;2.75;1.80;;;1.40;99.90;;;;;;5034707;28;20658;-44
2021/01/13 05:25:41;;;;;;;1.92;1.33;;;1.30;99.90;;;;;;5035156;28;20205;-45
2021/01/13 05:28:12;;;;;;;2.42;1.20;;;1.30;99.90;;;;;;5035916;28;20650;-45
2021/01/13 05:30:40;;;;;;;1.10;1.00;;;1.30;99.90;;;;;;5035702;28;20205;-46
2021/01/13 05:33:10;;;;;;;1.85;1.70;;;1.20;99.90;;;;;;5035868;28;20181;-46
2021/01/13 05:35:41;;;;;;;4.43;2.00;;;1.20;99.90;;;;;;5017346;28;20193;-48
2021/01/13 05:38:11;;;;;;;7.22;1.45;;;1.20;99.90;;;;;;5034642;28;20166;-46
2021/01/13 05:40:45;;;;;;;5.18;1.02;;;1.20;99.90;;;;;;5034644;28;20209;-50
2021/01/13 05:43:14;;;;;;;1.27;0.80;;;1.20;99.90;;;;;;5034512;28;20206;-46
2021/01/13 05:45:42;;;;;;;4.00;1.02;;;1.20;99.90;;;;;;5034329;28;20503;-49
2021/01/13 05:48:15;;;;;;;3.50;2.17;;;1.30;99.90;;;;;;5034131;28;20195;-54
2021/01/13 05:50:44;;;;;;;2.22;2.00;;;1.30;99.90;;;;;;5034233;28;20221;-48
2021/01/13 05:53:12;;;;;;;2.92;1.77;;;1.30;99.90;;;;;;5034563;28;20236;-48
2021/01/13 05:55:49;;;;;;;3.85;2.00;;;1.40;99.90;;;;;;5034592;28;20540;-49
2021/01/13 05:58:26;;;;;;;2.97;1.92;;;1.40;99.90;;;;;;5034693;28;20177;-45
2021/01/13 06:00:55;;;;;;;2.58;1.42;;;1.40;99.90;;;;;;5034493;28;20303;-47
2021/01/13 06:03:28;;;;;;;1.85;1.35;;;1.40;99.90;;;;;;5034815;28;20264;-45
2021/01/13 06:05:59;;;;;;;1.75;1.05;;;1.40;99.90;;;;;;5034375;28;20202;-45
2021/01/13 06:08:30;;;;;;;4.97;1.25;;;1.30;99.90;;;;;;5035035;28;20609;-44
2021/01/13 06:11:02;;;;;;;1.83;1.67;;;1.30;99.90;;;;;;5034503;28;20625;-44
2021/01/13 06:13:34;;;;;;;3.90;1.70;;;1.20;99.90;;;;;;5053824;28;20173;-46
2021/01/13 06:16:03;;;;;;;1.52;1.20;;;1.20;99.90;;;;;;5053543;28;20172;-44
2021/01/13 06:18:32;;;;;;;3.88;1.10;;;1.20;99.90;;;;;;5053711;28;20193;-44
2021/01/13 06:21:09;;;;;;;1.50;1.40;;;1.20;99.90;;;;;;5053373;28;20208;-48
2021/01/13 06:23:44;;;;;;;1.10;0.85;;;1.20;99.90;;;;;;5054555;28;20181;-46
2021/01/13 06:26:11;;;;;;;5.72;2.08;;;1.20;99.90;;;;;;5053911;28;20231;-46
2021/01/13 06:29:15;;;;;;;1.40;0.80;;;1.30;99.90;;;;;;5054090;28;20177;-45
2021/01/13 06:31:46;;;;;;;1.75;1.17;;;1.30;99.90;;;;;;5053977;28;20231;-44
2021/01/13 06:34:25;;;;;;;2.08;1.67;;;1.30;99.90;;;;;;5053813;28;20649;-50
2021/01/13 06:37:22;;;;;;;1.10;0.93;;;1.40;99.90;;;;;;5053272;28;20177;-47
2021/01/13 06:39:51;;;;;;;2.10;1.40;;;1.40;99.90;;;;;;5052051;28;20750;-49
2021/01/13 06:42:29;;;;;;;2.63;1.58;;;1.50;99.90;;;;;;5053004;28;20185;-52
2021/01/13 06:44:57;;;;;;;1.40;1.17;;;1.50;99.90;;;;;;5052797;28;20255;-47
2021/01/13 06:47:25;;;;;;;4.43;2.08;;;1.40;99.90;;;;;;5053106;28;20176;-47
2021/01/13 06:55:32;;;;;;;2.55;1.45;;;1.50;99.90;;;;;;5054549;22;20694;-45
2021/01/13 06:58:09;;;;;;;1.05;0.90;;;1.50;99.90;;;;;;5033062;28;20237;-50
2021/01/13 07:00:38;;;;;;;2.33;2.13;;;1.50;99.90;;;;;;5032826;28;20255;-51
2021/01/13 07:03:25;;;;;;;2.38;1.42;;;1.50;99.90;;;;;;5031784;28;20340;-47
2021/01/13 07:05:53;;;;;;;4.80;1.60;;;1.50;99.90;;;;;;5033016;28;20193;-51
2021/01/13 07:08:21;;;;;;;8.02;2.00;;;1.60;99.90;;;;;;5033075;28;20197;-51
2021/01/13 07:10:48;;;;;;;2.38;1.50;;;1.60;99.90;;;;;;5032818;28;20202;-48
2021/01/13 07:13:18;;;;;;;4.22;1.30;;;1.60;99.90;;;;;;5032812;28;20181;-54
2021/01/13 07:15:47;;;;;;;6.68;1.75;;;1.70;99.90;;;;;;5032727;28;20540;-45
2021/01/13 07:18:15;;;;;;;1.25;1.02;;;1.70;99.90;;;;;;5032432;28;20670;-47
2021/01/13 07:20:42;;;;;;;1.55;1.45;;;1.70;99.90;;;;;;5032462;28;20210;-48
2021/01/13 07:23:09;;;;;;;2.35;1.52;;;1.70;99.90;;;;;;5031967;28;20692;-50
2021/01/13 07:25:45;;;;;;;2.20;1.88;;;1.70;99.90;;;;;;5030259;28;20240;-45
2021/01/13 07:28:13;;;;;;;2.25;1.55;;;1.70;99.90;;;;;;5032215;28;20173;-47
2021/01/13 07:30:41;;;;;;;7.22;3.28;;;1.70;99.90;;;;;;5031859;28;20210;-48
2021/01/13 07:33:12;;;;;;;1.65;0.90;;;1.70;99.90;;;;;;5033880;28;20178;-50
2021/01/13 07:35:44;;;;;;;1.30;1.20;;;1.70;99.90;;;;;;5036230;28;20243;-46
2021/01/13 07:38:14;;;;;;;3.95;1.58;;;1.80;99.90;;;;;;5035863;28;20345;-46
2021/01/13 07:40:57;;;;;;;17.80;2.95;;;1.80;99.90;;;;;;5035199;28;20604;-50
2021/01/13 07:44:01;;;;;;;1.35;1.05;;;1.80;99.90;;;;;;5044075;28;20185;-45
2021/01/13 07:46:30;;;;;;;2.50;2.28;;;1.80;99.90;;;;;;5056255;28;20275;-48
2021/01/13 07:49:17;;;;;;;2.20;0.85;;;1.80;99.90;;;;;;5055630;28;20185;-48
2021/01/13 07:51:50;;;;;;;1.10;1.00;;;1.80;99.90;;;;;;5055156;28;20204;-46
2021/01/13 07:54:29;;;;;;;2.42;1.33;;;1.90;99.90;;;;;;5055741;28;20173;-47
2021/01/13 07:57:00;;;;;;;1.52;1.05;;;2.00;99.90;;;;;;5055157;28;20196;-50
2021/01/13 07:59:34;;;;;;;1.70;1.45;;;2.00;99.90;;;;;;5037099;28;20180;-50
2021/01/13 08:02:47;;;;;;;3.42;1.25;;;2.00;99.90;;;;;;5055569;28;20203;-50
2021/01/13 08:05:56;;;;;;;1.65;1.20;;;2.00;99.90;;;;;;5055336;28;20192;-54
2021/01/13 08:08:51;;;;;;;1.80;1.15;;;2.00;99.90;;;;;;5055308;28;20188;-49
2021/01/13 08:12:09;;;;;;;1.20;1.10;;;2.00;99.90;;;;;;5054857;28;20346;-45
2021/01/13 08:15:18;;;;;;;2.10;1.90;;;2.00;99.90;;;;;;5054502;28;20226;-48
2021/01/13 08:18:14;;;;;;;1.55;1.35;;;2.10;99.90;;;;;;4979748;28;20210;-48
2021/01/13 08:21:24;;;;;;;2.22;1.00;;;2.10;99.90;;;;;;5036492;28;20223;-45
2021/01/13 08:23:58;;;;;;;1.38;1.05;;;2.20;99.90;;;;;;5054585;28;20189;-51
2021/01/13 08:26:27;;;;;;;3.60;2.03;;;2.20;99.90;;;;;;5054672;28;20291;-56
2021/01/13 08:28:58;;;;;;;1.23;0.88;;;2.20;99.90;;;;;;5054864;28;20185;-49
2021/01/13 08:31:26;;;;;;;1.10;0.90;;;2.10;99.90;;;;;;5055288;28;20530;-47
2021/01/13 08:34:05;;;;;;;6.22;1.45;;;2.20;99.90;;;;;;5055687;28;20181;-48
2021/01/13 08:36:35;;;;;;;3.40;1.75;;;2.10;99.90;;;;;;5039667;28;20580;-47
2021/01/13 08:39:08;;;;;;;3.72;2.15;;;2.20;99.90;;;;;;5035594;28;20180;-46
2021/01/13 08:41:37;;;;;;;1.40;1.10;;;2.30;99.90;;;;;;5036646;28;20214;-58
2021/01/13 08:44:14;;;;;;;5.47;1.55;;;2.20;99.90;;;;;;5028195;28;20193;-59
2021/01/13 08:46:59;;;;;;;8.63;1.58;;;2.30;99.90;;;;;;5047672;28;20201;-59
2021/01/13 08:49:28;;;;;;;1.00;0.80;;;2.30;99.90;;;;;;5048529;28;20181;-58
2021/01/13 08:52:13;;;;;;;5.93;1.33;;;2.30;99.90;;;;;;5049814;28;20178;-55
2021/01/13 08:54:42;;;;;;;1.80;1.63;;;2.30;99.90;;;;;;5046935;28;20200;-59
2021/01/13 08:57:12;;;;;;;4.80;1.15;;;2.40;99.90;;;;;;5048794;28;20193;-57
2021/01/13 08:59:42;;;;;;;6.20;1.38;;;2.40;99.90;;;;;;5031854;28;20189;-61
2021/01/13 09:02:12;;;;;;;1.17;1.08;;;2.40;99.90;;;;;;5049781;28;20229;-59
2021/01/13 09:04:53;;;;;;;3.47;2.35;;;2.50;99.90;;;;;;5032090;28;20236;-60
2021/01/13 09:07:26;;;;;;;1.45;1.30;;;2.60;99.90;;;;;;5048847;28;20185;-58
2021/01/13 09:10:04;;;;;;;2.17;0.93;;;2.70;99.90;;;;;;5049127;28;20209;-59
2021/01/13 09:12:39;;;;;;;1.55;1.10;;;2.70;99.90;;;;;;5046779;28;20186;-57
2021/01/13 09:15:25;;;;;;;1.70;1.13;;;2.70;99.90;;;;;;5046736;28;20553;-60
2021/01/13 09:17:55;;;;;;;3.25;1.60;;;2.80;99.90;;;;;;5049699;28;20182;-60
2021/01/13 09:20:25;;;;;;;1.10;0.95;;;2.70;99.90;;;;;;5043937;22;20321;-56
2021/01/13 09:22:56;;;;;;;1.60;0.90;;;2.70;99.90;;;;;;5053104;28;20528;-58
2021/01/13 09:25:25;;;;;;;5.90;0.85;;;2.80;99.90;;;;;;5063348;28;20697;-55
2021/01/13 09:27:54;;;;;;;3.75;1.15;;;2.80;99.90;;;;;;5051529;28;20204;-60
2021/01/13 09:30:30;;;;;;;4.50;1.60;;;2.90;99.90;;;;;;5046686;28;20219;-58
2021/01/13 09:32:59;;;;;;;2.58;1.85;;;2.90;99.90;;;;;;5053850;28;20210;-55
2021/01/13 09:35:27;;;;;;;1.10;0.70;;;2.80;99.90;;;;;;5039523;28;20190;-60
2021/01/13 09:37:59;;;;;;;1.35;1.05;;;2.70;99.90;;;;;;5034331;28;20186;-59
2021/01/13 09:40:56;;;;;;;1.60;1.00;;;2.80;99.90;;;;;;5016954;28;20315;-60
2021/01/13 09:43:25;;;;;;;2.35;1.25;;;2.80;99.90;;;;;;5042943;28;20187;-61
2021/01/13 09:45:55;;;;;;;1.17;0.80;;;3.00;99.90;;;;;;5032064;28;20299;-61
2021/01/13 09:48:25;;;;;;;3.67;2.15;;;3.00;99.90;;;;;;5039030;28;20192;-64
2021/01/13 09:51:04;;;;;;;1.33;1.08;;;3.20;99.90;;;;;;5037968;28;20221;-62
2021/01/13 09:53:36;;;;;;;1.77;1.67;;;3.30;99.90;;;;;;5038453;28;20181;-63
2021/01/13 09:56:06;;;;;;;1.33;0.90;;;3.30;99.90;;;;;;5040583;28;20212;-63
2021/01/13 09:58:40;;;;;;;1.77;0.77;;;3.30;99.90;;;;;;5048129;28;20200;-63
2021/01/13 10:01:13;;;;;;;1.23;1.13;;;3.30;99.90;;;;;;5039215;28;20328;-63
2021/01/13 10:03:42;;;;;;;1.00;0.82;;;3.20;99.90;;;;;;5020824;28;20197;-59
2021/01/13 10:06:19;;;;;;;2.15;0.98;;;3.20;99.90;;;;;;5037377;28;20221;-57
2021/01/13 10:09:12;;;;;;;3.67;2.20;;;3.20;99.90;;;;;;5033554;28;20178;-54
2021/01/13 10:11:40;;;;;;;1.67;1.40;;;3.10;99.90;;;;;;5015073;28;20217;-55
2021/01/13 10:14:09;;;;;;;3.30;1.10;;;3.20;99.90;;;;;;5032954;28;20251;-55
2021/01/13 10:16:41;;;;;;;1.75;1.58;;;3.20;99.90;;;;;;5033430;28;20192;-62
2021/01/13 10:19:09;;;;;;;3.50;1.90;;;3.20;99.90;;;;;;5028336;28;20303;-50
2021/01/13 10:21:39;;;;;;;6.18;1.15;;;3.20;99.90;;;;;;5054297;28;20212;-62
2021/01/13 10:24:07;;;;;;;0.80;0.75;;;3.20;99.90;;;;;;5055253;28;20176;-63
2021/01/13 10:26:40;;;;;;;2.95;0.80;;;3.30;99.90;;;;;;5035616;28;20205;-54
2021/01/13 10:29:07;;;;;;;1.50;0.95;;;3.30;99.90;;;;;;5053954;28;20196;-65
2021/01/13 10:31:39;;;;;;;0.90;0.80;;;3.40;99.90;;;;;;5054877;28;20212;-57
2021/01/13 10:34:11;;;;;;;1.20;0.90;;;3.50;99.90;;;;;;5055200;28;20188;-62
2021/01/13 10:36:43;;;;;;;3.63;2.25;;;3.50;99.90;;;;;;5052083;28;20169;-56
2021/01/13 10:39:15;;;;;;;1.00;0.90;;;3.50;99.90;;;;;;5052505;28;20200;-59
2021/01/13 10:41:46;;;;;;;0.90;0.82;;;3.40;99.90;;;;;;5052780;28;20283;-60
2021/01/13 10:44:16;;;;;;;1.83;0.85;;;3.50;99.90;;;;;;5052837;28;20183;-63
2021/01/13 10:46:53;;;;;;;1.58;1.42;;;3.40;99.90;;;;;;5052805;28;20654;-58
2021/01/13 10:49:27;;;;;;;3.40;1.98;;;3.40;99.90;;;;;;5052029;28;20199;-57
2021/01/13 10:51:56;;;;;;;1.27;0.70;;;3.40;99.90;;;;;;5052056;28;20176;-57
2021/01/13 10:54:25;;;;;;;6.00;1.75;;;3.30;99.90;;;;;;5052750;28;20204;-56
2021/01/13 10:56:56;;;;;;;1.00;0.90;;;3.30;99.90;;;;;;5052017;28;20176;-59
2021/01/13 10:59:24;;;;;;;2.75;0.90;;;3.30;99.90;;;;;;5051654;28;20565;-54
2021/01/13 11:01:53;;;;;;;2.45;2.25;;;3.40;99.90;;;;;;5051822;28;20263;-53
2021/01/13 11:04:25;;;;;;;2.15;1.95;;;3.40;99.90;;;;;;5051628;28;20283;-55
2021/01/13 11:06:57;;;;;;;4.72;1.60;;;3.50;99.90;;;;;;5051050;28;20331;-64
2021/01/13 11:09:25;;;;;;;3.90;1.23;;;3.50;99.90;;;;;;5051313;28;20177;-62
2021/01/13 11:11:54;;;;;;;1.38;1.05;;;3.40;99.90;;;;;;5051290;28;20188;-62
2021/01/13 11:14:36;;;;;;;1.55;1.45;;;3.50;99.90;;;;;;5051232;28;20173;-55
2021/01/13 11:17:12;;;;;;;1.75;1.20;;;3.50;99.90;;;;;;5052126;28;20169;-57
2021/01/13 11:19:42;;;;;;;3.75;1.33;;;3.40;99.90;;;;;;5052678;28;20572;-58
2021/01/13 11:22:11;;;;;;;4.50;1.35;;;3.50;99.90;;;;;;5052301;28;20196;-56
2021/01/13 11:24:44;;;;;;;1.80;1.00;;;3.50;99.90;;;;;;5052017;28;20193;-57
2021/01/13 11:27:15;;;;;;;1.95;1.02;;;3.50;99.90;;;;;;5052244;28;20200;-58
2021/01/13 11:29:46;;;;;;;1.65;1.25;;;3.60;99.90;;;;;;5034702;28;20619;-58
2021/01/13 11:32:17;;;;;;;0.90;0.80;;;3.60;99.90;;;;;;5052102;28;20187;-55
2021/01/13 11:34:49;;;;;;;1.50;1.10;;;3.60;99.90;;;;;;5051798;28;20192;-55
2021/01/13 11:37:47;;;;;;;2.15;0.90;;;3.70;99.90;;;;;;5051477;28;20204;-58
2021/01/13 11:40:38;;;;;;;1.00;0.73;;;3.70;99.90;;;;;;5033766;28;20216;-56
2021/01/13 11:43:44;;;;;;;2.60;1.40;;;3.60;99.90;;;;;;5051805;28;20211;-59
2021/01/13 11:46:15;;;;;;;1.27;0.85;;;3.60;99.90;;;;;;5051686;28;20680;-55
2021/01/13 11:49:18;;;;;;;2.85;1.58;;;3.70;99.90;;;;;;5051708;28;20177;-59
2021/01/13 11:51:48;;;;;;;9.50;1.33;;;3.70;99.90;;;;;;5029355;28;20216;-58
2021/01/13 11:54:28;;;;;;;0.95;0.73;;;3.70;99.90;;;;;;5051579;28;20196;-55
2021/01/13 11:57:16;;;;;;;1.35;0.82;;;3.90;99.90;;;;;;5051630;28;20173;-56
2021/01/13 11:59:45;;;;;;;1.00;0.90;;;3.90;99.90;;;;;;5051553;28;20188;-58
2021/01/13 12:02:21;;;;;;;3.00;1.45;;;3.80;99.90;;;;;;5033477;28;20193;-54
2021/01/13 12:04:51;;;;;;;1.10;0.85;;;3.90;99.90;;;;;;5053120;28;20652;-54
2021/01/13 12:07:19;;;;;;;1.40;0.85;;;3.90;99.90;;;;;;5051446;28;20691;-55
2021/01/13 12:10:07;;;;;;;1.27;1.17;;;3.90;99.90;;;;;;5051488;28;20679;-54
2021/01/13 12:12:34;;;;;;;1.55;0.90;;;3.80;99.90;;;;;;5033905;28;20284;-58
2021/01/13 12:15:14;;;;;;;1.08;0.85;;;3.70;99.90;;;;;;5033973;28;20250;-54
2021/01/13 12:17:49;;;;;;;1.33;1.00;;;3.80;99.90;;;;;;5046786;28;20570;-57
2021/01/13 12:20:31;;;;;;;7.00;2.67;;;3.70;99.90;;;;;;5074998;28;20337;-55
2021/01/13 12:22:59;;;;;;;5.25;2.30;;;3.80;99.90;;;;;;5075413;28;20244;-59
2021/01/13 12:25:26;;;;;;;3.92;1.60;;;3.80;99.90;;;;;;5055720;28;20200;-52
2021/01/13 12:28:06;;;;;;;1.58;1.30;;;4.00;99.90;;;;;;5055158;28;20558;-54
2021/01/13 12:30:34;;;;;;;1.52;0.60;;;4.00;99.90;;;;;;5034952;28;20632;-56
2021/01/13 12:33:02;;;;;;;1.85;0.70;;;4.00;99.90;;;;;;5035339;28;20185;-57
2021/01/13 12:35:30;;;;;;;1.10;0.98;;;3.90;99.90;;;;;;5035844;28;20177;-58
2021/01/13 12:37:57;;;;;;;0.82;0.65;;;3.90;99.90;;;;;;5037253;28;20177;-59
2021/01/13 12:40:31;;;;;;;2.85;1.30;;;3.80;99.90;;;;;;5035278;28;20622;-58
2021/01/13 12:43:11;;;;;;;1.15;1.02;;;3.80;99.90;;;;;;5034967;28;20173;-54
2021/01/13 12:45:39;;;;;;;2.55;1.20;;;3.80;99.90;;;;;;5034726;28;20619;-57
2021/01/13 12:48:07;;;;;;;1.13;1.02;;;3.90;99.90;;;;;;5034536;28;20670;-57
2021/01/13 12:50:35;;;;;;;3.97;2.28;;;4.00;99.90;;;;;;5033981;28;20285;-57
2021/01/13 12:53:02;;;;;;;1.30;1.10;;;4.20;99.90;;;;;;5016126;28;20193;-53
2021/01/13 12:55:32;;;;;;;3.03;1.63;;;4.30;99.90;;;;;;5035699;28;20239;-54
2021/01/13 12:58:00;;;;;;;5.05;1.83;;;4.50;99.90;;;;;;5019756;28;20280;-51
2021/01/13 13:00:27;;;;;;;2.20;1.30;;;4.50;99.90;;;;;;5034649;28;20205;-55
2021/01/13 13:02:55;;;;;;;0.90;0.80;;;4.40;99.90;;;;;;5033401;28;20658;-57
2021/01/13 13:05:24;;;;;;;2.00;1.08;;;4.30;99.90;;;;;;5049887;28;20621;-59
2021/01/13 13:07:51;;;;;;;5.15;1.20;;;4.30;99.90;;;;;;5052909;28;20188;-55
2021/01/13 13:10:18;;;;;;;2.22;1.15;;;4.20;99.90;;;;;;5035165;28;20216;-55
2021/01/13 13:12:45;;;;;;;1.10;0.90;;;4.20;99.90;;;;;;5052913;28;20196;-61
2021/01/13 13:15:13;;;;;;;3.25;1.20;;;4.10;99.90;;;;;;5053089;28;20653;-53
2021/01/13 13:17:40;;;;;;;1.38;1.27;;;4.00;99.90;;;;;;5052668;28;20192;-52
2021/01/13 13:20:10;;;;;;;1.90;1.30;;;4.00;99.90;;;;;;5052828;28;20223;-61
2021/01/13 13:22:37;;;;;;;1.42;1.17;;;3.90;99.90;;;;;;5052162;28;20177;-62
2021/01/13 13:25:06;;;;;;;1.80;1.25;;;3.90;99.90;;;;;;5072531;28;20192;-55
2021/01/13 13:27:37;;;;;;;1.10;1.00;;;4.00;99.90;;;;;;5073406;28;20608;-55
2021/01/13 13:30:06;;;;;;;3.40;1.98;;;3.90;99.90;;;;;;5061890;28;20220;-53
2021/01/13 13:32:36;;;;;;;6.50;2.80;;;3.80;99.90;;;;;;5053864;28;20264;-53
2021/01/13 13:35:04;;;;;;;1.05;0.95;;;3.80;99.90;;;;;;5054341;28;20181;-63
2021/01/13 13:37:32;;;;;;;1.45;1.10;;;3.90;99.90;;;;;;5055158;28;20181;-53
2021/01/13 13:39:59;;;;;;;1.80;1.63;;;3.90;99.90;;;;;;5055089;28;20212;-52
2021/01/13 13:42:36;;;;;;;2.85;1.40;;;4.00;99.90;;;;;;5054271;28;20184;-56
2021/01/13 13:45:04;;;;;;;1.95;1.23;;;4.00;99.90;;;;;;5035724;28;20230;-55
2021/01/13 13:47:31;;;;;;;5.30;1.60;;;4.00;99.90;;;;;;5053693;28;20544;-55
2021/01/13 13:49:58;;;;;;;1.48;1.35;;;4.00;99.90;;;;;;5053806;28;20266;-55
2021/01/13 13:52:25;;;;;;;2.50;1.65;;;4.00;99.90;;;;;;5035388;28;20192;-54